Time;durP1;ratioP1;P1;durP2;ratioP2;P2;SDS_P1;SDS_P2;PMS_P1;PMS_P2;Temp;Humidity;BMP_temperature;BMP_pressure;BME280_temperature;BME280_humidity;BME280_pressure;Samples;Min_cycle;Max_cycle;Signal;HPM_P1;HPM_P2
2021/04/06 00:01:39;;;;;;;7.38;2.75;;;;;;;0.38;89.74;100121.81;5015203;28;20073;-71
2021/04/06 00:04:08;;;;;;;8.45;3.50;;;;;;;0.33;90.32;100108.75;5014892;28;20053;-71
2021/04/06 00:06:37;;;;;;;6.40;3.15;;;;;;;0.33;91.19;100106.13;4995716;28;20112;-71
2021/04/06 00:09:12;;;;;;;10.10;3.38;;;;;;;0.37;90.75;100101.69;4995439;28;20392;-71
2021/04/06 00:11:41;;;;;;;10.70;3.40;;;;;;;0.34;90.64;100093.88;4995392;28;20050;-71
2021/04/06 00:14:12;;;;;;;9.93;3.70;;;;;;;0.36;90.46;100085.09;4995620;28;20054;-71
2021/04/06 00:16:40;;;;;;;7.75;3.75;;;;;;;0.34;90.76;100089.50;4995675;28;20113;-71
2021/04/06 00:19:09;;;;;;;6.40;2.75;;;;;;;0.35;90.71;100093.84;4995562;28;20062;-71
2021/04/06 00:21:37;;;;;;;9.63;3.42;;;;;;;0.33;90.26;100084.28;4995908;28;20082;-71
2021/04/06 00:24:05;;;;;;;11.80;3.25;;;;;;;0.19;90.34;100081.91;4995782;28;20062;-71
2021/04/06 00:26:55;;;;;;;5.93;2.53;;;;;;;0.27;90.66;100098.38;4995297;28;20057;-71
2021/04/06 00:29:26;;;;;;;15.95;4.00;;;;;;;0.24;90.69;100101.06;4995235;28;20058;-71
2021/04/06 00:31:56;;;;;;;8.30;2.88;;;;;;;0.28;90.98;100105.38;4995277;28;20062;-70
2021/04/06 00:34:25;;;;;;;9.07;3.15;;;;;;;0.30;91.00;100108.81;4995841;28;20332;-70
2021/04/06 00:36:56;;;;;;;8.73;3.30;;;;;;;0.17;91.36;100092.47;4995909;28;20054;-70
2021/04/06 00:39:34;;;;;;;11.32;3.30;;;;;;;0.24;91.88;100106.31;4995098;28;20050;-71
2021/04/06 00:42:04;;;;;;;15.98;3.88;;;;;;;0.25;92.64;100108.91;4994103;28;20805;-71
2021/04/06 00:44:32;;;;;;;12.93;3.20;;;;;;;0.34;92.09;100105.25;4995398;28;20054;-71
2021/04/06 00:46:59;;;;;;;8.77;3.55;;;;;;;0.33;91.74;100100.88;4997659;28;20128;-71
2021/04/06 00:49:28;;;;;;;13.48;3.42;;;;;;;0.34;92.21;100102.63;4998887;28;20058;-71
2021/04/06 00:51:55;;;;;;;9.60;3.90;;;;;;;0.32;92.02;100099.16;5013971;28;20366;-72
2021/04/06 00:54:22;;;;;;;16.75;4.18;;;;;;;0.32;92.47;100109.66;4999125;28;20092;-71
2021/04/06 00:56:48;;;;;;;9.73;3.80;;;;;;;0.34;92.11;100110.50;4997789;28;20054;-71
2021/04/06 00:59:22;;;;;;;12.57;3.88;;;;;;;0.41;92.44;100106.00;4997908;28;20100;-70
2021/04/06 01:01:54;;;;;;;11.73;4.10;;;;;;;0.44;91.51;100105.06;4999059;28;20055;-71
2021/04/06 01:04:26;;;;;;;8.43;3.20;;;;;;;0.33;91.65;100074.63;5000546;28;20057;-71
2021/04/06 01:06:58;;;;;;;10.65;3.30;;;;;;;0.47;91.48;100102.34;5018220;28;20065;-71
2021/04/06 01:09:37;;;;;;;9.98;2.90;;;;;;;0.48;91.50;100109.38;5018188;28;20045;-71
2021/04/06 01:12:05;;;;;;;11.52;2.72;;;;;;;0.33;91.07;100095.63;5018701;28;20072;-71
2021/04/06 01:14:35;;;;;;;13.90;2.70;;;;;;;0.44;91.00;100107.69;5018447;28;20046;-71
2021/04/06 01:17:06;;;;;;;7.72;1.90;;;;;;;0.36;90.90;100106.09;5018429;28;20100;-71
2021/04/06 01:19:33;;;;;;;;;;;;;;;0.38;90.82;100099.03;5018482;28;20046;-71
2021/04/06 01:22:04;;;;;;;8.70;2.25;;;;;;;0.38;91.32;100099.03;5018178;28;20000;-71
2021/04/06 01:24:31;;;;;;;10.70;2.30;;;;;;;0.37;91.00;100096.44;5018327;28;20054;-72
2021/04/06 01:26:59;;;;;;;7.80;2.10;;;;;;;0.35;90.84;100101.72;5018043;28;20498;-72
2021/04/06 01:29:26;;;;;;;9.35;1.80;;;;;;;0.36;91.27;100100.84;5017626;28;20058;-72
2021/04/06 01:31:53;;;;;;;8.85;1.92;;;;;;;0.47;91.50;100100.63;5018198;28;20054;-72
2021/04/06 01:34:20;;;;;;;9.32;2.20;;;;;;;0.48;90.39;100107.59;5016411;28;20045;-72
2021/04/06 01:36:47;;;;;;;8.13;1.88;;;;;;;0.46;90.46;100095.38;5017895;28;20120;-72
2021/04/06 01:39:19;;;;;;;6.45;2.15;;;;;;;0.44;90.97;100105.91;5017435;28;20108;-72
2021/04/06 01:41:47;;;;;;;9.00;2.33;;;;;;;0.42;91.82;100112.13;5016645;28;20046;-71
2021/04/06 01:44:15;;;;;;;9.30;3.75;;;;;;;0.49;91.14;100108.47;5017468;28;20054;-72
2021/04/06 01:46:46;;;;;;;8.15;2.28;;;;;;;0.36;91.31;100095.59;5017938;28;20050;-72
2021/04/06 01:49:15;;;;;;;;;;;;;;;0.37;91.46;100099.06;5017958;28;20058;-71
2021/04/06 01:51:42;;;;;;;6.45;2.25;;;;;;;0.39;91.61;100095.50;5016159;28;20196;-71
2021/04/06 01:54:11;;;;;;;8.40;2.35;;;;;;;0.37;91.56;100097.31;5017490;28;20049;-71
2021/04/06 01:56:44;;;;;;;7.47;3.15;;;;;;;0.28;92.11;100097.50;5017517;28;20054;-71
2021/04/06 01:59:15;;;;;;;10.85;2.97;;;;;;;0.22;93.59;100097.63;5017423;28;20100;-71
2021/04/06 02:01:46;;;;;;;8.57;2.58;;;;;;;0.21;94.08;100098.50;5017153;28;20057;-72
2021/04/06 02:04:19;;;;;;;8.05;3.17;;;;;;;0.09;94.69;100083.84;5017212;28;20058;-72
2021/04/06 02:06:45;;;;;;;11.90;3.10;;;;;;;0.14;94.23;100089.88;5015894;28;20108;-72
2021/04/06 02:09:12;;;;;;;8.80;2.67;;;;;;;0.12;94.40;100097.78;5017073;28;20057;-72
2021/04/06 02:11:39;;;;;;;13.90;3.58;;;;;;;0.08;94.83;100096.13;5016383;28;20100;-71
2021/04/06 02:14:26;;;;;;;12.77;4.47;;;;;;;0.13;95.42;100103.91;5000081;28;20069;-72
2021/04/06 02:17:01;;;;;;;14.65;4.68;;;;;;;0.08;95.27;100101.38;5017012;28;20152;-71
2021/04/06 02:19:28;;;;;;;13.15;5.45;;;;;;;0.01;95.49;100107.63;5017138;28;20058;-71
2021/04/06 02:21:57;;;;;;;13.00;6.07;;;;;;;0.01;95.69;100109.38;5016035;28;20355;-72
2021/04/06 02:24:28;;;;;;;18.63;5.90;;;;;;;-0.09;95.44;100113.91;5016926;28;20062;-72
2021/04/06 02:27:28;;;;;;;15.23;6.03;;;;;;;-0.23;96.57;100112.41;5016243;28;20054;-72
2021/04/06 02:29:57;;;;;;;13.30;4.85;;;;;;;-0.35;97.35;100112.59;5016943;28;20052;-72
2021/04/06 02:32:26;;;;;;;15.25;4.07;;;;;;;-0.37;98.11;100110.03;5016929;28;20061;-72
2021/04/06 02:34:57;;;;;;;7.47;3.03;;;;;;;-0.43;98.69;100110.13;5015709;28;20050;-71
2021/04/06 02:37:27;;;;;;;13.02;3.35;;;;;;;-0.46;98.83;100105.78;5017105;28;20478;-72
2021/04/06 02:39:55;;;;;;;15.35;3.15;;;;;;;-0.46;98.17;100107.53;5015610;28;20058;-72
2021/04/06 02:42:35;;;;;;;8.00;2.60;;;;;;;-0.45;98.25;100107.53;5017210;28;20049;-72
2021/04/06 02:45:05;;;;;;;10.25;2.72;;;;;;;-0.43;98.83;100103.09;5016651;28;20053;-72
2021/04/06 02:47:33;;;;;;;8.45;2.97;;;;;;;-0.40;98.03;100098.72;5016842;28;20470;-72
2021/04/06 02:49:59;;;;;;;9.73;2.63;;;;;;;-0.56;97.65;100065.75;5016354;28;20046;-72
2021/04/06 02:52:26;;;;;;;13.82;2.92;;;;;;;-0.35;97.08;100108.22;5016355;28;20068;-72
2021/04/06 02:54:53;;;;;;;11.55;2.22;;;;;;;-0.36;97.09;100106.50;5015471;28;20478;-72
2021/04/06 02:57:24;;;;;;;9.93;2.38;;;;;;;-0.32;96.10;100112.56;5015259;28;20054;-72
2021/04/06 02:59:51;;;;;;;;;;;;;;;-0.26;96.11;100116.84;5016575;28;20081;-71
2021/04/06 03:02:18;;;;;;;15.88;2.17;;;;;;;-0.33;95.86;100100.34;5016145;28;19933;-71
2021/04/06 03:04:46;;;;;;;13.57;2.47;;;;;;;-0.30;96.64;100108.16;5015856;28;20346;-70
2021/04/06 03:07:17;;;;;;;11.48;2.72;;;;;;;-0.30;96.47;100105.53;5016199;28;20054;-72
2021/04/06 03:09:54;;;;;;;14.35;2.63;;;;;;;-0.30;96.38;100095.91;5015588;28;20152;-73
2021/04/06 03:12:26;;;;;;;12.95;2.42;;;;;;;-0.30;96.13;100074.06;5016114;28;20054;-71
2021/04/06 03:14:52;;;;;;;12.23;2.25;;;;;;;-0.28;96.33;100080.13;5016236;28;20058;-72
2021/04/06 03:17:18;;;;;;;10.13;2.85;;;;;;;-0.24;96.36;100081.81;5016313;28;20058;-73
2021/04/06 03:19:45;;;;;;;14.23;2.88;;;;;;;-0.25;96.79;100082.72;5016172;28;20046;-72
2021/04/06 03:22:15;;;;;;;11.50;2.67;;;;;;;-0.25;96.36;100087.09;5015740;28;20076;-72
2021/04/06 03:24:41;;;;;;;11.67;3.23;;;;;;;-0.21;96.94;100099.25;5015844;28;20423;-71
2021/04/06 03:27:08;;;;;;;14.77;3.83;;;;;;;-0.22;96.31;100085.28;5015811;28;20314;-71
2021/04/06 03:29:34;;;;;;;16.42;3.78;;;;;;;-0.19;96.52;100090.47;5015863;28;20050;-72
2021/04/06 03:32:01;;;;;;;18.67;4.53;;;;;;;-0.16;96.30;100086.94;5016321;28;20117;-71
2021/04/06 03:34:33;;;;;;;8.75;3.05;;;;;;;-0.13;95.87;100084.25;5015850;28;20058;-72
2021/04/06 03:37:02;;;;;;;14.02;2.97;;;;;;;-0.09;95.57;100087.69;5014847;28;20054;-70
2021/04/06 03:39:30;;;;;;;15.20;3.47;;;;;;;-0.05;94.31;100082.34;5019336;28;20058;-70
2021/04/06 03:41:57;;;;;;;14.07;2.83;;;;;;;0.02;94.89;100085.72;5016685;28;20050;-71
2021/04/06 03:44:30;;;;;;;13.38;3.50;;;;;;;-0.04;94.45;100072.72;5015607;28;20455;-71
2021/04/06 03:47:04;;;;;;;18.00;3.70;;;;;;;-0.05;94.05;100069.22;5015259;28;20192;-70
2021/04/06 03:49:32;;;;;;;18.45;5.90;;;;;;;-0.05;95.44;100073.63;5015692;28;20179;-71
2021/04/06 03:52:08;;;;;;;18.75;4.05;;;;;;;-0.08;95.23;100073.66;5015296;28;20108;-72
2021/04/06 03:54:46;;;;;;;13.70;3.53;;;;;;;-0.02;94.95;100076.19;5014317;28;20049;-72
2021/04/06 03:57:48;;;;;;;12.05;3.80;;;;;;;0.03;94.57;100076.09;5015468;28;20403;-72
2021/04/06 04:00:15;;;;;;;13.00;4.55;;;;;;;0.01;95.89;100070.88;5015057;28;20130;-72
2021/04/06 04:02:41;;;;;;;11.43;3.53;;;;;;;-0.11;95.68;100068.50;5015516;28;20061;-73
2021/04/06 04:05:08;;;;;;;17.92;5.03;;;;;;;-0.15;96.58;100073.78;5011095;28;20058;-70
2021/04/06 04:07:38;;;;;;;10.60;3.85;;;;;;;-0.40;96.61;100028.78;4994672;28;20058;-72
2021/04/06 04:10:06;;;;;;;7.80;3.97;;;;;;;-0.18;96.03;100063.34;4995499;28;20042;-72
2021/04/06 04:12:32;;;;;;;20.00;4.13;;;;;;;-0.21;95.94;100063.38;4995748;28;20057;-72
2021/04/06 04:14:58;;;;;;;9.95;4.10;;;;;;;-0.23;96.44;100067.81;5010303;28;20050;-71
2021/04/06 04:17:26;;;;;;;11.63;4.47;;;;;;;-0.18;95.52;100075.59;4995149;28;20059;-72
2021/04/06 04:19:53;;;;;;;15.30;4.72;;;;;;;-0.18;95.33;100070.34;4995336;28;20046;-71
2021/04/06 04:22:21;;;;;;;14.18;5.15;;;;;;;-0.24;95.62;100068.69;4994889;28;20050;-72
2021/04/06 04:24:47;;;;;;;16.95;5.38;;;;;;;-0.20;96.53;100070.38;4995622;28;20054;-71
2021/04/06 04:27:13;;;;;;;19.67;5.95;;;;;;;-0.16;96.09;100079.91;4995776;28;20065;-72
2021/04/06 04:29:39;;;;;;;18.10;5.78;;;;;;;-0.17;96.78;100080.81;4994261;28;20062;-72
2021/04/06 04:32:13;;;;;;;19.15;5.55;;;;;;;-0.19;95.99;100082.59;4994185;28;20073;-72
2021/04/06 04:34:41;;;;;;;15.93;6.03;;;;;;;-0.21;96.12;100078.28;4995357;28;20433;-70
2021/04/06 04:37:08;;;;;;;14.13;5.40;;;;;;;-0.19;96.74;100079.09;4995393;28;20137;-71
2021/04/06 04:39:34;;;;;;;14.27;5.47;;;;;;;-0.19;96.40;100093.09;4995464;28;20097;-72
2021/04/06 04:42:00;;;;;;;18.92;6.43;;;;;;;-0.19;96.68;100082.59;5010517;28;20061;-72
2021/04/06 04:44:26;;;;;;;16.85;5.82;;;;;;;-0.19;95.88;100077.38;4995255;28;20074;-71
2021/04/06 04:46:52;;;;;;;10.05;4.57;;;;;;;-0.06;96.02;100079.78;4995026;28;20057;-71
2021/04/06 04:49:18;;;;;;;14.48;4.65;;;;;;;-0.02;95.70;100084.94;4995457;28;20103;-72
2021/04/06 04:51:44;;;;;;;17.55;5.22;;;;;;;-0.06;96.22;100092.88;4994884;28;20121;-72
2021/04/06 04:54:10;;;;;;;14.57;4.70;;;;;;;0.02;95.80;100090.09;4978045;28;20097;-72
2021/04/06 04:56:36;;;;;;;12.70;4.20;;;;;;;-0.04;95.51;100096.34;4995202;28;20431;-72
2021/04/06 04:59:03;;;;;;;14.80;4.47;;;;;;;-0.27;95.20;100066.16;4995694;28;20085;-72
2021/04/06 05:01:31;;;;;;;17.05;6.00;;;;;;;-0.05;95.43;100099.84;4995506;28;20078;-72
2021/04/06 05:04:00;;;;;;;15.77;5.75;;;;;;;0.01;95.85;100088.38;4994353;28;20348;-73
2021/04/06 05:06:26;;;;;;;12.57;5.05;;;;;;;0.03;94.55;100097.94;5013810;28;20108;-71
2021/04/06 05:08:52;;;;;;;16.20;4.85;;;;;;;-0.10;93.66;100086.84;5014693;28;20050;-71
2021/04/06 05:11:19;;;;;;;19.67;5.60;;;;;;;-0.04;94.65;100097.19;4997230;28;20061;-73
2021/04/06 05:13:47;;;;;;;19.17;5.20;;;;;;;0.02;93.16;100090.09;5014746;28;20427;-71
2021/04/06 05:16:13;;;;;;;11.30;5.28;;;;;;;-0.05;92.84;100079.72;5014712;28;20124;-73
2021/04/06 05:18:40;;;;;;;16.52;5.15;;;;;;;-0.09;93.76;100085.06;5013570;28;20050;-72
2021/04/06 05:21:06;;;;;;;19.60;5.55;;;;;;;-0.01;93.55;100102.41;5013526;28;20049;-72
2021/04/06 05:23:32;;;;;;;14.55;6.00;;;;;;;-0.01;93.75;100101.53;5013569;28;20049;-72
2021/04/06 05:25:59;;;;;;;13.40;4.38;;;;;;;-0.06;93.37;100087.63;5014985;28;20075;-72
2021/04/06 05:28:25;;;;;;;18.42;4.10;;;;;;;-0.06;93.29;100087.63;5013118;28;20046;-71
2021/04/06 05:30:52;;;;;;;21.60;4.68;;;;;;;0.06;92.45;100095.25;5014464;28;20046;-74
2021/04/06 05:33:20;;;;;;;15.57;4.40;;;;;;;0.02;92.75;100088.34;5016169;28;20054;-73
2021/04/06 05:35:47;;;;;;;15.80;4.50;;;;;;;0.02;91.97;100083.09;5017926;28;20117;-73
2021/04/06 05:38:13;;;;;;;11.23;4.30;;;;;;;0.17;92.55;100099.47;5017565;28;20046;-74
2021/04/06 05:40:39;;;;;;;14.45;4.20;;;;;;;0.22;92.73;100101.09;5016871;28;20204;-73
2021/04/06 05:43:09;;;;;;;24.58;5.40;;;;;;;0.18;92.56;100080.19;5017688;28;20346;-71
2021/04/06 05:45:38;;;;;;;15.93;3.92;;;;;;;0.25;92.02;100097.53;5000615;28;20050;-72
2021/04/06 05:48:07;;;;;;;16.90;4.53;;;;;;;0.22;92.50;100097.63;5014128;28;20085;-73
2021/04/06 05:50:37;;;;;;;20.52;4.53;;;;;;;0.05;92.56;100064.66;5013542;28;20053;-78
2021/04/06 05:53:04;;;;;;;11.55;3.75;;;;;;;0.29;92.37;100087.84;5015129;28;20069;-74
2021/04/06 05:55:34;;;;;;;16.45;3.95;;;;;;;0.43;91.14;100098.94;5016802;28;20045;-74
2021/04/06 05:58:01;;;;;;;19.10;4.57;;;;;;;0.52;92.21;100117.16;5016919;28;20057;-73
2021/04/06 06:00:27;;;;;;;19.65;4.22;;;;;;;0.53;91.53;100103.13;5016357;28;20053;-73
2021/04/06 06:02:54;;;;;;;10.18;4.28;;;;;;;0.44;90.93;100112.94;5017478;28;20402;-76
2021/04/06 06:05:20;;;;;;;16.70;3.83;;;;;;;0.38;91.53;100111.31;5017238;28;20148;-75
2021/04/06 06:07:46;;;;;;;20.02;4.70;;;;;;;0.11;92.01;100069.81;5017161;28;20389;-75
2021/04/06 06:10:30;;;;;;;17.05;4.97;;;;;;;0.29;92.39;100096.59;5016380;28;20104;-71
2021/04/06 06:13:17;;;;;;;14.32;5.70;;;;;;;0.38;92.01;100108.69;5017304;28;20060;-72
2021/04/06 06:16:20;;;;;;;11.20;4.90;;;;;;;0.32;92.81;100112.28;5017255;28;20053;-75
2021/04/06 06:18:58;;;;;;;9.68;4.20;;;;;;;0.20;92.18;100110.75;5015944;28;20050;-75
2021/04/06 06:21:49;;;;;;;10.23;4.10;;;;;;;0.16;92.69;100106.44;5017052;28;20397;-73
2021/04/06 06:24:27;;;;;;;10.38;3.55;;;;;;;0.15;92.68;100107.34;5016135;28;20149;-75
2021/04/06 06:26:56;;;;;;;16.10;3.17;;;;;;;0.28;92.39;100115.88;5015232;28;20058;-72
2021/04/06 06:29:41;;;;;;;18.42;4.15;;;;;;;0.20;92.75;100100.25;5014514;28;20675;-73
2021/04/06 06:32:20;;;;;;;6.75;2.70;;;;;;;0.28;91.76;100101.88;5014556;28;20506;-72
2021/04/06 06:34:47;;;;;;;6.88;2.33;;;;;;;0.36;91.61;100115.72;5015664;28;20058;-73
2021/04/06 06:37:33;;;;;;;4.93;3.25;;;;;;;0.33;91.24;100106.13;5015867;28;20053;-73
2021/04/06 06:40:03;;;;;;;6.38;3.28;;;;;;;0.51;91.73;100104.03;5016296;28;20125;-75
2021/04/06 06:42:34;;;;;;;6.57;3.60;;;;;;;0.55;91.25;100110.97;5016845;28;20053;-75
2021/04/06 06:45:01;;;;;;;15.50;5.38;;;;;;;0.61;91.54;100109.97;5015555;28;20176;-72
2021/04/06 06:47:31;;;;;;;11.82;5.32;;;;;;;0.70;91.96;100114.19;5016668;28;20443;-74
2021/04/06 06:50:09;;;;;;;11.18;5.65;;;;;;;0.62;91.30;100104.69;5016644;28;20065;-74
2021/04/06 06:52:36;;;;;;;16.27;5.68;;;;;;;0.57;91.38;100098.66;5016505;28;20362;-74
2021/04/06 06:55:19;;;;;;;10.75;5.07;;;;;;;0.49;91.60;100116.34;5015071;28;20054;-73
2021/04/06 06:57:47;;;;;;;8.73;5.10;;;;;;;0.48;90.75;100104.13;5015076;28;20053;-74
2021/04/06 07:00:15;;;;;;;10.80;4.68;;;;;;;0.46;90.98;100105.88;5015494;28;20120;-74
2021/04/06 07:02:43;;;;;;;16.80;5.63;;;;;;;0.48;91.67;100101.50;5016177;28;20049;-73
2021/04/06 07:05:23;;;;;;;20.23;5.32;;;;;;;0.51;91.19;100104.03;5016499;28;20053;-75
2021/04/06 07:07:56;;;;;;;18.83;6.45;;;;;;;0.70;91.19;100109.78;5017654;28;20122;-73
2021/04/06 07:10:34;;;;;;;13.75;4.90;;;;;;;0.72;89.91;100101.88;5016409;28;20049;-75
2021/04/06 07:13:13;;;;;;;9.18;4.88;;;;;;;0.76;89.67;100109.63;5016700;28;20057;-74
2021/04/06 07:15:43;;;;;;;16.17;5.00;;;;;;;0.89;89.41;100102.38;5017242;28;20053;-71
2021/04/06 07:18:13;;;;;;;14.52;4.40;;;;;;;0.96;89.27;100100.47;5023325;28;20084;-71
2021/04/06 07:20:45;;;;;;;11.75;4.40;;;;;;;1.00;89.14;100090.75;5021368;28;20107;-74
2021/04/06 07:23:16;;;;;;;13.65;5.00;;;;;;;1.17;88.89;100114.91;5017749;28;20124;-72
2021/04/06 07:25:46;;;;;;;10.10;4.28;;;;;;;0.86;89.19;100089.28;5017292;28;20123;-72
2021/04/06 07:28:15;;;;;;;13.95;5.22;;;;;;;1.02;90.36;100112.59;5022368;28;20104;-72
2021/04/06 07:30:46;;;;;;;13.93;4.07;;;;;;;0.97;88.74;100112.69;5020569;28;20395;-72
2021/04/06 07:33:15;;;;;;;10.30;3.55;;;;;;;0.88;88.90;100098.00;5018077;28;20068;-73
2021/04/06 07:35:42;;;;;;;19.17;4.00;;;;;;;1.01;87.83;100113.50;4998626;28;20343;-73
2021/04/06 07:38:09;;;;;;;14.20;3.90;;;;;;;0.76;88.02;100101.75;5015372;28;20062;-73
2021/04/06 07:40:37;;;;;;;9.43;3.70;;;;;;;0.81;89.26;100106.91;5017648;28;20042;-75
2021/04/06 07:43:05;;;;;;;9.90;3.80;;;;;;;0.75;90.39;100115.81;5016249;28;20054;-74
2021/04/06 07:45:35;;;;;;;18.33;4.15;;;;;;;0.57;89.87;100117.06;5015069;28;20104;-73
2021/04/06 07:48:01;;;;;;;13.73;3.88;;;;;;;0.48;91.37;100131.22;5014830;28;20062;-74
2021/04/06 07:50:44;;;;;;;13.98;4.50;;;;;;;0.20;92.67;100123.88;5015660;28;20045;-75
2021/04/06 07:53:21;;;;;;;16.60;4.72;;;;;;;0.19;93.60;100123.91;5015331;28;20064;-76
2021/04/06 07:55:48;;;;;;;14.30;4.25;;;;;;;0.28;93.64;100121.13;5014154;28;20137;-75
2021/04/06 07:58:42;;;;;;;13.90;4.72;;;;;;;0.32;93.87;100114.91;5015450;28;20050;-73
2021/04/06 08:01:08;;;;;;;12.05;4.75;;;;;;;0.32;92.87;100120.16;5014465;28;20401;-75
2021/04/06 08:03:54;;;;;;;10.15;4.22;;;;;;;0.39;92.79;100118.28;5015806;28;20061;-76
2021/04/06 08:06:22;;;;;;;16.65;7.28;;;;;;;0.57;92.69;100117.06;5015736;28;20057;-74
2021/04/06 08:08:48;;;;;;;10.35;4.05;;;;;;;0.67;90.74;100113.31;5015704;28;20321;-74
2021/04/06 08:11:16;;;;;;;10.93;3.72;;;;;;;0.74;90.45;100116.69;5014154;28;20069;-72
2021/04/06 08:13:44;;;;;;;10.38;3.60;;;;;;;0.86;90.61;100126.06;5015181;28;20347;-72
2021/04/06 08:16:12;;;;;;;11.77;4.03;;;;;;;1.16;91.03;100123.69;5015491;28;20054;-73
2021/04/06 08:18:52;;;;;;;10.57;3.30;;;;;;;1.19;89.78;100120.97;5015211;28;20431;-76
2021/04/06 08:21:20;;;;;;;14.30;3.05;;;;;;;1.24;89.20;100126.13;5014342;28;20046;-74
2021/04/06 08:23:47;;;;;;;5.30;2.22;;;;;;;1.10;88.24;100113.31;5015530;28;20058;-74
2021/04/06 08:26:28;;;;;;;5.85;2.63;;;;;;;1.08;88.45;100112.47;5014952;28;20065;-72
2021/04/06 08:28:54;;;;;;;4.55;1.90;;;;;;;1.15;88.23;100123.72;5014011;28;20062;-72
2021/04/06 08:31:29;;;;;;;9.95;3.95;;;;;;;0.75;88.39;100125.44;5013835;28;20045;-74
2021/04/06 08:34:30;;;;;;;9.77;2.50;;;;;;;0.79;90.26;100129.72;5015330;28;20054;-72
2021/04/06 08:37:11;;;;;;;10.00;2.33;;;;;;;0.59;89.43;100136.25;5029293;28;20050;-73
2021/04/06 08:39:39;;;;;;;9.30;2.78;;;;;;;0.53;91.17;100128.50;5014639;28;20058;-72
2021/04/06 08:42:07;;;;;;;7.22;2.42;;;;;;;0.53;92.02;100131.13;5007357;28;20431;-73
2021/04/06 08:44:35;;;;;;;9.15;2.90;;;;;;;0.55;91.99;100139.88;5015104;28;20050;-73
2021/04/06 08:47:03;;;;;;;10.88;2.60;;;;;;;0.48;92.13;100141.72;5015051;28;20427;-72
2021/04/06 08:49:30;;;;;;;5.18;2.50;;;;;;;0.42;92.68;100135.75;5015929;28;20097;-74
2021/04/06 08:52:01;;;;;;;11.23;2.55;;;;;;;0.28;93.31;100151.75;5030973;28;20053;-74
2021/04/06 08:54:31;;;;;;;4.88;1.48;;;;;;;0.21;92.87;100135.25;5016038;28;20061;-73
2021/04/06 08:57:06;;;;;;;3.47;1.50;;;;;;;0.11;94.11;100122.28;5014911;28;20406;-73
2021/04/06 08:59:42;;;;;;;4.13;1.88;;;;;;;0.08;93.81;100119.75;5013927;28;20053;-73
2021/04/06 09:02:16;;;;;;;6.55;2.22;;;;;;;0.09;93.56;100113.59;5027547;28;20065;-74
2021/04/06 09:04:46;;;;;;;4.60;2.38;;;;;;;0.20;94.22;100120.38;5013921;28;20359;-73
2021/04/06 09:07:20;;;;;;;9.02;2.50;;;;;;;0.32;93.77;100119.31;5015590;28;20065;-73
2021/04/06 09:09:50;;;;;;;6.80;2.70;;;;;;;0.42;94.02;100122.63;5019166;28;20046;-74
2021/04/06 09:12:18;;;;;;;5.05;2.22;;;;;;;0.52;93.24;100124.16;5016975;28;20080;-74
2021/04/06 09:14:45;;;;;;;6.85;2.90;;;;;;;0.52;92.28;100127.66;5018167;28;20046;-73
2021/04/06 09:17:12;;;;;;;5.30;1.50;;;;;;;0.56;92.09;100132.84;5033791;28;20057;-72
2021/04/06 09:19:39;;;;;;;6.00;1.33;;;;;;;0.64;91.95;100125.66;5017126;28;20061;-72
2021/04/06 09:22:09;;;;;;;7.05;1.63;;;;;;;0.85;91.37;100128.72;5017983;28;20076;-73
2021/04/06 09:24:35;;;;;;;5.68;1.20;;;;;;;1.04;90.68;100132.69;5018227;28;20053;-73
2021/04/06 09:27:02;;;;;;;4.55;1.30;;;;;;;0.94;88.79;100133.81;5033887;28;20369;-73
2021/04/06 09:29:30;;;;;;;6.50;1.88;;;;;;;0.86;88.65;100115.56;5017863;28;20100;-72
2021/04/06 09:32:13;;;;;;;3.53;1.83;;;;;;;1.12;90.11;100126.41;5018424;28;20125;-72
2021/04/06 09:34:43;;;;;;;5.22;2.75;;;;;;;1.06;89.31;100112.50;5018465;28;20053;-74
2021/04/06 09:37:15;;;;;;;4.28;2.95;;;;;;;1.08;87.72;100105.44;5018123;28;20050;-72
2021/04/06 09:39:57;;;;;;;10.75;3.00;;;;;;;1.38;86.09;100114.41;5017587;28;20050;-73
2021/04/06 09:42:24;;;;;;;12.05;3.15;;;;;;;1.45;86.40;100114.25;5017080;28;20347;-73
2021/04/06 09:44:51;;;;;;;14.45;4.05;;;;;;;1.66;88.04;100112.00;5017196;28;20061;-74
2021/04/06 09:47:21;;;;;;;10.07;3.53;;;;;;;1.93;85.67;100108.69;5017278;28;20139;-73
2021/04/06 09:49:50;;;;;;;7.20;2.23;;;;;;;1.82;86.14;100101.06;5017891;28;20153;-72
2021/04/06 09:52:19;;;;;;;8.52;2.47;;;;;;;1.90;87.05;100093.84;5016552;28;20299;-73
2021/04/06 09:54:54;;;;;;;5.72;2.05;;;;;;;1.74;85.71;100104.75;5018081;28;20049;-73
2021/04/06 09:57:37;;;;;;;12.50;2.60;;;;;;;1.66;88.10;100101.47;5018039;28;20050;-73
2021/04/06 10:00:11;;;;;;;10.20;3.13;;;;;;;1.81;88.28;100109.88;5016746;28;20049;-72
2021/04/06 10:02:38;;;;;;;9.60;2.85;;;;;;;2.16;87.49;100100.19;5016721;28;20060;-73
2021/04/06 10:05:15;;;;;;;8.20;3.20;;;;;;;2.22;83.71;100091.25;5017255;28;20447;-72
2021/04/06 10:07:46;;;;;;;9.23;3.28;;;;;;;2.21;84.73;100082.50;5016331;28;20335;-76
2021/04/06 10:10:29;;;;;;;10.73;2.65;;;;;;;2.30;82.51;100070.84;5017124;28;20054;-73
2021/04/06 10:12:56;;;;;;;8.63;2.70;;;;;;;2.51;82.01;100086.94;5015974;28;20136;-74
2021/04/06 10:15:26;;;;;;;8.02;2.40;;;;;;;2.60;81.89;100073.50;5014219;28;20113;-75
2021/04/06 10:17:54;;;;;;;4.93;2.88;;;;;;;2.61;83.54;100066.47;5017033;28;20383;-73
2021/04/06 10:20:23;;;;;;;9.32;2.65;;;;;;;2.63;82.48;100078.69;5017056;28;20050;-73
2021/04/06 10:22:57;;;;;;;9.23;2.75;;;;;;;2.39;81.20;100075.00;5017351;28;20096;-72
2021/04/06 10:25:28;;;;;;;8.70;2.67;;;;;;;2.34;81.99;100063.72;5017211;28;20049;-72
2021/04/06 10:27:56;;;;;;;;;;;;;;;2.54;83.85;100071.91;5017673;28;20054;-73
2021/04/06 10:30:43;;;;;;;7.70;2.70;;;;;;;2.46;84.59;100075.66;5016333;28;19953;-73
2021/04/06 10:33:11;;;;;;;10.88;3.38;;;;;;;2.50;82.99;100072.03;5017419;28;20054;-73
2021/04/06 10:35:59;;;;;;;12.15;3.22;;;;;;;2.44;84.12;100067.78;5032333;28;20379;-72
2021/04/06 10:38:35;;;;;;;8.15;3.33;;;;;;;2.38;84.23;100054.78;5015869;28;20060;-72
2021/04/06 10:41:16;;;;;;;11.30;3.30;;;;;;;2.28;84.02;100064.72;5038275;28;20041;-73
2021/04/06 10:43:55;;;;;;;6.90;3.20;;;;;;;2.39;85.73;100065.28;5032940;28;20053;-74
2021/04/06 10:46:24;;;;;;;9.55;2.72;;;;;;;2.32;84.29;100061.13;5012089;28;20089;-73
2021/04/06 10:49:00;;;;;;;8.25;2.17;;;;;;;1.85;83.65;100064.16;5014010;28;20054;-72
2021/04/06 10:51:27;;;;;;;7.25;2.05;;;;;;;1.53;85.20;100079.00;5015526;28;20458;-73
2021/04/06 10:53:56;;;;;;;6.57;1.95;;;;;;;1.82;87.80;100067.72;5014136;28;20575;-74
2021/04/06 10:56:30;;;;;;;6.97;1.80;;;;;;;1.85;85.29;100064.16;5014762;28;20427;-73
2021/04/06 10:59:00;;;;;;;5.95;2.03;;;;;;;1.76;85.09;100066.09;5014467;28;20333;-73
2021/04/06 11:01:36;;;;;;;4.68;1.92;;;;;;;1.60;86.06;100070.03;5015349;28;20050;-72
2021/04/06 11:04:09;;;;;;;5.53;1.83;;;;;;;0.98;88.27;100077.63;5015924;28;20084;-73
2021/04/06 11:06:38;;;;;;;4.97;1.70;;;;;;;0.30;92.20;100060.69;5003228;28;20057;-73
2021/04/06 11:09:17;;;;;;;7.40;2.10;;;;;;;0.19;94.09;100055.66;5015371;28;20058;-73
2021/04/06 11:11:50;;;;;;;5.47;1.30;;;;;;;0.31;93.20;100047.53;5016853;28;20108;-73
2021/04/06 11:14:25;;;;;;;6.40;1.90;;;;;;;0.73;91.62;100045.78;5015944;28;20072;-73
2021/04/06 11:16:52;;;;;;;6.30;1.90;;;;;;;0.46;89.95;99985.09;5016814;28;20100;-72
2021/04/06 11:19:25;;;;;;;3.75;1.85;;;;;;;0.88;88.81;100032.31;4999509;28;20050;-73
2021/04/06 11:21:54;;;;;;;4.57;1.67;;;;;;;1.14;88.80;100024.72;5016178;28;20050;-72
2021/04/06 11:24:23;;;;;;;10.80;2.17;;;;;;;1.51;88.56;100017.69;5016478;28;20154;-72
2021/04/06 11:26:50;;;;;;;4.10;2.53;;;;;;;1.78;89.01;100009.97;5031598;28;20419;-73
2021/04/06 11:29:20;;;;;;;6.10;2.92;;;;;;;2.16;86.55;100008.91;5015737;28;20454;-73
2021/04/06 11:31:49;;;;;;;5.32;2.00;;;;;;;2.47;85.03;100001.00;5016357;28;20077;-72
2021/04/06 11:34:16;;;;;;;4.45;2.10;;;;;;;2.51;84.45;100005.28;5016064;28;20050;-72
2021/04/06 11:36:44;;;;;;;7.15;1.90;;;;;;;2.80;83.62;100000.88;5016440;28;20061;-73
2021/04/06 11:39:12;;;;;;;3.45;1.42;;;;;;;2.82;80.29;100002.53;5015737;28;20455;-73
2021/04/06 11:41:40;;;;;;;4.68;2.15;;;;;;;2.60;81.38;100004.97;5015299;28;20050;-73
2021/04/06 11:44:07;;;;;;;3.83;1.63;;;;;;;2.80;84.82;100004.38;5015092;28;20403;-73